createdAt,value
2022-11-12T00:01:08.949Z,98497.22
2022-11-12T00:03:36.750Z,98499.63
2022-11-12T00:06:03.741Z,98467.03
2022-11-12T00:08:30.410Z,98476.13
2022-11-12T00:10:58.264Z,98485.78
2022-11-12T00:13:25.994Z,98486.63
2022-11-12T00:15:52.559Z,98467.81
2022-11-12T00:18:19.120Z,98492.47
2022-11-12T00:20:47.035Z,98475.88
2022-11-12T00:23:13.618Z,98474.41
2022-11-12T00:25:41.470Z,98458.72
2022-11-12T00:28:11.168Z,98468.72
2022-11-12T00:30:39.777Z,98478.31
2022-11-12T00:33:07.102Z,98475.03
2022-11-12T00:35:35.161Z,98449.13
2022-11-12T00:38:02.821Z,98447.50
2022-11-12T00:40:30.404Z,98439.63
2022-11-12T00:42:58.395Z,98441.28
2022-11-12T00:45:26.198Z,98455.63
2022-11-12T00:47:56.993Z,98450.22
2022-11-12T00:50:25.711Z,98437.28
2022-11-12T00:52:54.099Z,98445.13
2022-11-12T00:55:21.972Z,98449.47
2022-11-12T00:57:48.721Z,98434.53
2022-11-12T01:00:18.838Z,98431.81
2022-11-12T01:02:50.956Z,98437.50
2022-11-12T01:05:19.769Z,98444.28
2022-11-12T01:07:53.128Z,98436.22
2022-11-12T01:10:23.042Z,98439.47
2022-11-12T01:12:50.844Z,98438.03
2022-11-12T01:15:17.496Z,98418.13
2022-11-12T01:17:44.052Z,98417.69
2022-11-12T01:20:12.041Z,98410.44
2022-11-12T01:22:39.738Z,98410.44
2022-11-12T01:25:07.872Z,98405.53
2022-11-12T01:27:34.435Z,98419.44
2022-11-12T01:30:02.721Z,98413.03
2022-11-12T01:32:34.686Z,98404.84
2022-11-12T01:35:01.216Z,98395.16
2022-11-12T01:37:29.198Z,98385.56
2022-11-12T01:39:56.791Z,98392.94
2022-11-12T01:42:30.451Z,98384.44
2022-11-12T01:44:58.328Z,98383.72
2022-11-12T01:47:33.093Z,98393.56
2022-11-12T01:50:16.271Z,98388.75
2022-11-12T01:52:55.789Z,98379.00
2022-11-12T01:55:34.630Z,98390.28
2022-11-12T01:58:15.819Z,98387.88
2022-11-12T02:00:42.891Z,98367.06
2022-11-12T02:03:16.842Z,98371.22
2022-11-12T02:05:48.046Z,98318.22
2022-11-12T02:08:15.286Z,98363.31
2022-11-12T02:10:43.014Z,98335.22
2022-11-12T02:13:29.568Z,98345.22
2022-11-12T02:15:56.298Z,98354.31
2022-11-12T02:18:24.724Z,98344.81
2022-11-12T02:20:58.893Z,98370.16
2022-11-12T02:23:25.458Z,98345.53
2022-11-12T02:25:52.028Z,98343.06
2022-11-12T02:28:19.731Z,98353.59
2022-11-12T02:30:49.492Z,98361.66
2022-11-12T02:33:17.144Z,98358.47
2022-11-12T02:35:45.294Z,98354.19
2022-11-12T02:38:12.983Z,98330.31
2022-11-12T02:40:39.615Z,98374.72
2022-11-12T02:43:07.279Z,98368.59
2022-11-12T02:45:35.272Z,98353.38
2022-11-12T02:48:03.182Z,98373.84
2022-11-12T02:50:30.955Z,98367.88
2022-11-12T02:52:58.568Z,98370.19
2022-11-12T02:55:26.449Z,98372.53
2022-11-12T02:57:58.031Z,98369.41
2022-11-12T03:00:27.671Z,98386.00
2022-11-12T03:03:01.845Z,98374.09
2022-11-12T03:05:32.034Z,98380.44
2022-11-12T03:08:00.721Z,98375.19
2022-11-12T03:10:29.581Z,98376.28
2022-11-12T03:12:59.776Z,98369.94
2022-11-12T03:15:27.648Z,98373.00
2022-11-12T03:17:54.470Z,98370.66
2022-11-12T03:20:22.415Z,98348.97
2022-11-12T03:23:01.756Z,98362.88
2022-11-12T03:25:30.014Z,98369.34
2022-11-12T03:28:02.235Z,98370.28
2022-11-12T03:30:32.117Z,98327.59
2022-11-12T03:32:58.656Z,98359.97
2022-11-12T03:35:27.045Z,98358.06
2022-11-12T03:37:54.744Z,98363.13
2022-11-12T03:40:21.960Z,98351.28
2022-11-12T03:42:51.008Z,98335.53
2022-11-12T03:45:21.507Z,98342.63
2022-11-12T03:47:50.445Z,98364.03
2022-11-12T03:50:20.525Z,98361.59
2022-11-12T03:52:50.652Z,98346.66
2022-11-12T03:55:20.814Z,98361.06
2022-11-12T03:57:52.126Z,98366.66
2022-11-12T04:00:20.198Z,98365.84
2022-11-12T04:02:48.013Z,98377.06
2022-11-12T04:05:34.852Z,98382.81
2022-11-12T04:08:23.250Z,98376.38
2022-11-12T04:10:51.940Z,98384.31
2022-11-12T04:13:28.519Z,98370.78
2022-11-12T04:16:21.266Z,98379.34
2022-11-12T04:19:09.238Z,98304.03
2022-11-12T04:21:56.299Z,98373.09
2022-11-12T04:24:50.535Z,98383.47
2022-11-12T04:27:23.552Z,98373.09
2022-11-12T04:30:11.607Z,98366.28
2022-11-12T04:32:51.093Z,98369.91
2022-11-12T04:35:19.160Z,98355.06
2022-11-12T04:37:48.048Z,98364.22
2022-11-12T04:40:44.498Z,98360.25
2022-11-12T04:43:34.533Z,98362.72
2022-11-12T04:46:04.646Z,98366.06
2022-11-12T04:48:32.601Z,98356.22
2022-11-12T04:51:27.921Z,98360.03
2022-11-12T04:53:56.068Z,98336.19
2022-11-12T04:56:23.975Z,98344.44
2022-11-12T04:58:50.782Z,98336.75
2022-11-12T05:01:18.707Z,98339.09
2022-11-12T05:03:45.304Z,98341.72
2022-11-12T05:06:31.791Z,98341.38
2022-11-12T05:08:59.894Z,98357.28
2022-11-12T05:11:26.511Z,98337.41
2022-11-12T05:13:54.487Z,98348.19
2022-11-12T05:16:22.320Z,98337.09
2022-11-12T05:18:50.173Z,98351.84
2022-11-12T05:21:42.219Z,98349.50
2022-11-12T05:24:22.448Z,98339.25
2022-11-12T05:26:57.787Z,98331.13
2022-11-12T05:29:24.364Z,98343.09
2022-11-12T05:31:52.209Z,98338.41
2022-11-12T05:34:22.961Z,98304.25
2022-11-12T05:36:50.961Z,98360.63
2022-11-12T05:39:20.606Z,98358.66
2022-11-12T05:42:11.228Z,98344.41
2022-11-12T05:44:36.555Z,98345.97
2022-11-12T05:47:04.653Z,98375.75
2022-11-12T05:49:32.200Z,98364.97
2022-11-12T05:51:58.731Z,98363.72
2022-11-12T05:54:26.780Z,98374.13
2022-11-12T05:56:53.735Z,98384.47
2022-11-12T05:59:22.253Z,98406.75
2022-11-12T06:01:50.391Z,98417.81
2022-11-12T06:04:18.288Z,98420.22
2022-11-12T06:06:44.943Z,98421.06
2022-11-12T06:09:13.002Z,98416.41
2022-11-12T06:11:40.837Z,98432.88
2022-11-12T06:14:08.850Z,98423.78
2022-11-12T06:16:36.488Z,98435.00
2022-11-12T06:19:03.255Z,98425.56
2022-11-12T06:21:30.829Z,98432.72
2022-11-12T06:24:00.229Z,98444.50
2022-11-12T06:26:30.398Z,98444.81
2022-11-12T06:28:58.289Z,98438.84
2022-11-12T06:31:25.931Z,98437.22
2022-11-12T06:33:53.540Z,98445.81
2022-11-12T06:36:21.587Z,98422.81
2022-11-12T06:38:48.509Z,98448.88
2022-11-12T06:41:15.483Z,98449.50
2022-11-12T06:43:43.781Z,98456.66
2022-11-12T07:03:33.576Z,98415.97
2022-11-12T07:06:05.083Z,98421.91
2022-11-12T07:08:31.718Z,98422.84
2022-11-12T07:10:58.533Z,98428.66
2022-11-12T07:13:25.351Z,98417.25
2022-11-12T07:15:51.930Z,98415.09
2022-11-12T07:18:18.440Z,98414.94
2022-11-12T07:20:45.003Z,98426.63
2022-11-12T07:23:11.538Z,98420.16
2022-11-12T07:25:38.176Z,98421.53
2022-11-12T07:28:04.835Z,98409.81
2022-11-12T07:30:31.413Z,98414.16
2022-11-12T07:32:58.554Z,98398.63
2022-11-12T07:35:25.104Z,98409.41
2022-11-12T07:37:53.713Z,98410.13
2022-11-12T07:40:22.440Z,98399.44
2022-11-12T07:42:49.234Z,98402.28
2022-11-12T07:45:15.786Z,98390.88
2022-11-12T07:47:42.376Z,98405.44
2022-11-12T07:50:09.487Z,98385.72
2022-11-12T07:52:35.991Z,98392.44
2022-11-12T07:55:02.571Z,98391.19
2022-11-12T07:57:29.090Z,98388.47
2022-11-12T07:59:55.681Z,98380.31
2022-11-12T08:02:22.182Z,98373.50
2022-11-12T08:04:48.694Z,98369.84
2022-11-12T08:07:15.588Z,98394.66
2022-11-12T08:09:42.252Z,98376.72
2022-11-12T08:12:08.784Z,98375.91
2022-11-12T08:14:35.610Z,98381.38
2022-11-12T08:17:02.161Z,98378.09
2022-11-12T08:19:28.665Z,98371.66
2022-11-12T08:21:55.246Z,98365.31
2022-11-12T08:24:21.846Z,98370.06
2022-11-12T08:26:48.434Z,98362.84
2022-11-12T08:29:15.165Z,98368.84
2022-11-12T08:31:41.691Z,98349.41
2022-11-12T08:34:19.951Z,98339.94
2022-11-12T08:36:48.960Z,98344.22
2022-11-12T08:39:15.515Z,98343.00
2022-11-12T08:41:42.027Z,98344.97
2022-11-12T08:44:09.034Z,98342.34
2022-11-12T08:46:35.687Z,98346.59
2022-11-12T08:49:02.279Z,98353.13
2022-11-12T08:51:28.838Z,98345.84
2022-11-12T08:53:55.488Z,98358.22
2022-11-12T08:56:22.032Z,98338.72
2022-11-12T08:58:48.605Z,98352.34
2022-11-12T09:01:15.231Z,98348.50
2022-11-12T09:03:41.847Z,98339.75
2022-11-12T09:06:08.399Z,98352.13
2022-11-12T09:08:36.683Z,98385.50
2022-11-12T09:11:04.229Z,98386.47
2022-11-12T09:13:31.195Z,98387.56
2022-11-12T09:16:05.240Z,98396.16
2022-11-12T09:18:33.032Z,98400.97
2022-11-12T09:21:07.118Z,98404.66
2022-11-12T09:23:35.170Z,98410.22
2022-11-12T09:26:02.127Z,98413.50
2022-11-12T09:28:29.017Z,98408.03
2022-11-12T09:30:56.003Z,98403.59
2022-11-12T09:33:25.980Z,98408.56
2022-11-12T09:35:53.408Z,98410.06
2022-11-12T09:38:20.202Z,98417.59
2022-11-12T09:40:52.829Z,98413.69
2022-11-12T09:43:30.999Z,98420.16
2022-11-12T09:46:26.579Z,98415.03
2022-11-12T09:49:03.018Z,98425.19
2022-11-12T09:51:34.162Z,98420.56
2022-11-12T09:54:28.647Z,98403.63
2022-11-12T09:56:55.195Z,98410.94
2022-11-12T09:59:26.180Z,98413.56
2022-11-12T10:01:59.920Z,98410.28
2022-11-12T10:05:02.185Z,98411.34
2022-11-12T10:07:40.587Z,98410.72
2022-11-12T10:10:32.628Z,98420.75
2022-11-12T10:13:25.032Z,98419.66
2022-11-12T10:16:25.519Z,98415.50
2022-11-12T10:19:08.980Z,98406.44
2022-11-12T10:21:58.088Z,98406.09
2022-11-12T10:24:34.054Z,98413.56
2022-11-12T10:27:01.125Z,98407.47
2022-11-12T10:29:36.248Z,98406.22
2022-11-12T10:32:03.496Z,98414.38
2022-11-12T10:34:31.320Z,98422.06
2022-11-12T10:37:02.555Z,98416.25
2022-11-12T10:39:44.890Z,98416.84
2022-11-12T10:42:17.788Z,98411.19
2022-11-12T10:44:45.451Z,98419.41
2022-11-12T10:47:32.987Z,98415.25
2022-11-12T10:50:05.680Z,98409.38
2022-11-12T10:52:32.483Z,98426.88
2022-11-12T10:55:22.400Z,98418.06
2022-11-12T10:58:10.251Z,98408.50
2022-11-12T11:00:51.292Z,98412.31
2022-11-12T11:03:23.359Z,98409.38
2022-11-12T11:05:56.459Z,98408.03
2022-11-12T11:08:36.303Z,98408.13
2022-11-12T11:11:18.627Z,98402.84
2022-11-12T11:13:49.209Z,98394.00
2022-11-12T11:16:22.239Z,98394.00
2022-11-12T11:18:53.198Z,98399.44
2022-11-12T11:21:41.959Z,98400.22
2022-11-12T11:24:32.002Z,98405.53
2022-11-12T11:27:10.673Z,98401.75
2022-11-12T11:30:01.433Z,98407.06
2022-11-12T11:32:27.966Z,98411.38
2022-11-12T11:35:03.302Z,98408.88
2022-11-12T11:37:32.517Z,98402.78
2022-11-12T11:40:16.023Z,98395.56
2022-11-12T11:43:00.635Z,98409.00
2022-11-12T11:46:21.242Z,98410.00
2022-11-12T11:48:47.703Z,98402.00
2022-11-12T11:51:25.860Z,98408.31
2022-11-12T11:53:58.538Z,98404.91
2022-11-12T11:56:33.992Z,98407.06
2022-11-12T11:59:23.950Z,98404.94
2022-11-12T12:02:15.362Z,98405.59
2022-11-12T12:04:44.843Z,98406.09
2022-11-12T12:07:11.342Z,98396.47
2022-11-12T12:09:56.491Z,98390.06
2022-11-12T12:12:23.881Z,98384.19
2022-11-12T12:15:19.783Z,98391.44
2022-11-12T12:17:57.870Z,98380.81
2022-11-12T12:20:35.228Z,98389.06
2022-11-12T12:23:42.882Z,98390.41
2022-11-12T12:26:38.859Z,98391.50
2022-11-12T12:29:17.495Z,98393.00
2022-11-12T12:32:01.416Z,98387.59
2022-11-12T12:34:39.643Z,98386.28
2022-11-12T12:37:28.965Z,98372.13
2022-11-12T12:40:19.150Z,98370.78
2022-11-12T12:42:53.971Z,98364.00
2022-11-12T12:45:43.724Z,98370.41
2022-11-12T12:48:19.458Z,98360.97
2022-11-12T12:50:47.480Z,98344.22
2022-11-12T12:53:29.504Z,98347.09
2022-11-12T12:56:02.674Z,98351.78
2022-11-12T12:58:45.558Z,98354.94
2022-11-12T13:01:21.564Z,98344.81
2022-11-12T13:03:55.879Z,98352.28
2022-11-12T13:06:25.182Z,98342.56
2022-11-12T13:09:20.921Z,98364.47
2022-11-12T13:12:05.163Z,98360.66
2022-11-12T13:14:31.644Z,98370.91
2022-11-12T13:17:00.867Z,98361.97
2022-11-12T13:19:29.358Z,98366.16
2022-11-12T13:22:17.793Z,98365.94
2022-11-12T13:25:12.235Z,98364.00
2022-11-12T13:27:44.838Z,98348.75
2022-11-12T13:30:14.228Z,98364.00
2022-11-12T13:32:43.863Z,98344.41
2022-11-12T13:35:22.224Z,98361.97
2022-11-12T13:37:54.931Z,98362.97
2022-11-12T13:40:35.466Z,98369.75
2022-11-12T13:43:12.070Z,98361.31
2022-11-12T13:46:03.380Z,98364.53
2022-11-12T13:48:33.888Z,98376.66
2022-11-12T13:51:17.312Z,98375.03
2022-11-12T13:53:43.855Z,98377.66
2022-11-12T13:56:11.605Z,98380.81
2022-11-12T13:58:43.948Z,98384.50
2022-11-12T14:01:11.356Z,98388.44
2022-11-12T14:03:37.777Z,98373.50
2022-11-12T14:06:16.490Z,98371.56
2022-11-12T14:09:06.989Z,98387.69
2022-11-12T14:11:48.554Z,98389.81
2022-11-12T14:14:35.464Z,98387.31
2022-11-12T14:17:23.087Z,98393.72
2022-11-12T14:20:14.012Z,98402.78
2022-11-12T14:22:42.803Z,98396.41
2022-11-12T14:25:14.220Z,98397.34
2022-11-12T14:27:40.838Z,98379.63
2022-11-12T14:30:33.777Z,98402.66
2022-11-12T14:33:11.161Z,98402.06
2022-11-12T14:35:39.420Z,98402.44
2022-11-12T14:38:14.710Z,98396.28
2022-11-12T14:40:58.319Z,98398.56
2022-11-12T14:43:31.061Z,98404.19
2022-11-12T14:45:59.675Z,98412.13
2022-11-12T14:48:26.805Z,98411.56
2022-11-12T14:51:08.971Z,98401.72
2022-11-12T14:53:41.608Z,98409.47
2022-11-12T14:56:13.525Z,98408.72
2022-11-12T14:58:40.686Z,98419.72
2022-11-12T15:02:13.877Z,98419.56
2022-11-12T15:04:19.482Z,98413.63
2022-11-12T15:06:54.500Z,98417.69
2022-11-12T15:09:38.438Z,98403.44
2022-11-12T15:12:12.686Z,98413.97
2022-11-12T15:14:39.333Z,98395.31
2022-11-12T15:17:06.113Z,98409.91
2022-11-12T15:19:33.089Z,98403.31
2022-11-12T15:22:01.891Z,98410.00
2022-11-12T15:24:35.848Z,98409.28
2022-11-12T15:27:39.595Z,98413.84
2022-11-12T15:30:27.023Z,98412.34
2022-11-12T15:33:11.833Z,98401.44
2022-11-12T15:35:43.977Z,98418.31
2022-11-12T15:38:35.970Z,98420.69
2022-11-12T15:41:03.078Z,98407.88
2022-11-12T15:43:35.161Z,98420.63
2022-11-12T15:46:02.318Z,98414.81
2022-11-12T15:48:28.919Z,98416.34
2022-11-12T15:50:55.561Z,98412.38
2022-11-12T15:53:22.118Z,98418.53
2022-11-12T15:55:49.856Z,98420.44
2022-11-12T15:58:27.363Z,98418.00
2022-11-12T16:00:53.959Z,98418.69
2022-11-12T16:03:22.073Z,98415.53
2022-11-12T16:05:48.682Z,98424.31
2022-11-12T16:08:15.515Z,98423.25
2022-11-12T16:10:43.851Z,98426.78
2022-11-12T16:13:24.147Z,98429.09
2022-11-12T16:15:51.665Z,98429.09
2022-11-12T16:18:18.230Z,98437.53
2022-11-12T16:20:45.303Z,98440.78
2022-11-12T16:23:11.831Z,98434.72
2022-11-12T16:25:40.829Z,98455.97
2022-11-12T16:28:15.350Z,98438.03
2022-11-12T16:30:42.947Z,98448.44
2022-11-12T16:33:11.177Z,98455.06
2022-11-12T16:35:37.970Z,98454.63
2022-11-12T16:38:10.417Z,98454.72
2022-11-12T16:40:36.940Z,98462.44
2022-11-12T16:43:03.526Z,98468.91
2022-11-12T16:45:38.340Z,98465.13
2022-11-12T16:48:12.681Z,98466.75
2022-11-12T16:50:39.967Z,98475.00
2022-11-12T16:53:06.490Z,98468.63
2022-11-12T16:55:32.991Z,98480.28
2022-11-12T16:57:59.582Z,98468.66
2022-11-12T17:00:26.242Z,98487.75
2022-11-12T17:02:53.659Z,98493.56
2022-11-12T17:05:21.819Z,98483.44
2022-11-12T17:07:49.408Z,98468.63
2022-11-12T17:10:16.963Z,98474.19
2022-11-12T17:12:43.702Z,98479.84
2022-11-12T17:15:10.389Z,98481.44
2022-11-12T17:17:36.959Z,98470.97
2022-11-12T17:20:04.376Z,98461.13
2022-11-12T17:22:31.462Z,98448.56
2022-11-12T17:24:57.962Z,98443.97
2022-11-12T17:27:24.555Z,98447.25
2022-11-12T17:29:51.139Z,98448.50
2022-11-12T17:32:17.754Z,98452.63
2022-11-12T17:34:44.614Z,98456.00
2022-11-12T17:37:11.169Z,98448.69
2022-11-12T17:39:37.735Z,98455.84
2022-11-12T17:42:04.438Z,98457.44
2022-11-12T17:44:30.974Z,98458.28
2022-11-12T17:46:57.601Z,98468.72
2022-11-12T17:49:24.264Z,98460.75
2022-11-12T17:51:50.778Z,98464.91
2022-11-12T17:54:17.534Z,98463.47
2022-11-12T17:56:44.318Z,98457.88
2022-11-12T17:59:10.861Z,98465.50
2022-11-12T18:01:38.002Z,98466.00
2022-11-12T18:04:04.766Z,98476.38
2022-11-12T18:06:34.179Z,98479.56
2022-11-12T18:09:12.463Z,98477.94
2022-11-12T18:11:48.417Z,98468.00
2022-11-12T18:14:15.375Z,98468.88
2022-11-12T18:16:42.197Z,98474.16
2022-11-12T18:19:11.176Z,98477.81
2022-11-12T18:21:40.010Z,98462.34
2022-11-12T18:24:07.928Z,98476.72
2022-11-12T18:26:35.029Z,98471.13
2022-11-12T18:29:01.610Z,98477.50
2022-11-12T18:31:28.310Z,98481.00
2022-11-12T18:33:55.730Z,98475.75
2022-11-12T18:36:26.748Z,98488.19
2022-11-12T18:38:54.790Z,98483.81
2022-11-12T18:41:25.924Z,98489.34
2022-11-12T18:43:53.623Z,98472.59
2022-11-12T18:46:20.522Z,98486.13
2022-11-12T18:48:47.545Z,98485.72
2022-11-12T18:51:16.115Z,98490.09
2022-11-12T18:53:43.598Z,98497.97
2022-11-12T18:56:13.984Z,98486.81
2022-11-12T18:58:41.352Z,98483.28
2022-11-12T19:01:09.256Z,98481.72
2022-11-12T19:03:36.884Z,98489.78
2022-11-12T19:06:05.606Z,98500.75
2022-11-12T19:08:32.529Z,98502.34
2022-11-12T19:11:00.477Z,98504.66
2022-11-12T19:13:27.708Z,98514.50
2022-11-12T19:15:55.308Z,98523.22
2022-11-12T19:18:22.007Z,98532.28
2022-11-12T19:20:48.935Z,98531.88
2022-11-12T19:23:18.493Z,98534.97
2022-11-12T19:25:44.976Z,98520.25
2022-11-12T19:28:11.607Z,98535.16
2022-11-12T19:30:38.205Z,98544.88
2022-11-12T19:33:04.712Z,98551.41
2022-11-12T19:35:31.215Z,98548.63
2022-11-12T19:37:57.760Z,98543.41
2022-11-12T19:40:24.314Z,98543.88
2022-11-12T19:42:50.847Z,98557.97
2022-11-12T19:45:17.437Z,98574.09
2022-11-12T19:47:43.965Z,98580.22
2022-11-12T19:50:10.475Z,98575.81
2022-11-12T19:52:36.955Z,98581.75
2022-11-12T19:55:03.690Z,98568.94
2022-11-12T19:57:30.223Z,98559.38
2022-11-12T19:59:56.754Z,98558.16
2022-11-12T20:02:23.364Z,98571.78
2022-11-12T20:04:49.888Z,98587.13
2022-11-12T20:07:16.603Z,98591.13
2022-11-12T20:09:44.503Z,98587.91
2022-11-12T20:12:11.432Z,98577.91
2022-11-12T20:14:37.940Z,98580.69
2022-11-12T20:17:04.921Z,98594.31
2022-11-12T20:19:31.529Z,98599.09
2022-11-12T20:21:58.089Z,98592.88
2022-11-12T20:24:24.696Z,98587.28
2022-11-12T20:26:51.313Z,98598.44
2022-11-12T20:29:17.807Z,98599.25
2022-11-12T20:31:44.806Z,98592.50
2022-11-12T20:34:12.784Z,98592.88
2022-11-12T20:36:39.380Z,98586.88
2022-11-12T20:39:06.172Z,98592.81
2022-11-12T20:41:32.756Z,98595.19
2022-11-12T20:44:00.495Z,98599.56
2022-11-12T20:46:27.861Z,98588.00
2022-11-12T20:48:54.933Z,98584.81
2022-11-12T20:51:25.645Z,98580.06
2022-11-12T20:53:58.744Z,98584.00
2022-11-12T20:56:26.932Z,98580.06
2022-11-12T20:58:53.869Z,98589.75
2022-11-12T21:01:22.417Z,98581.06
2022-11-12T21:03:49.351Z,98591.41
2022-11-12T21:06:19.381Z,98600.59
2022-11-12T21:08:46.459Z,98595.81
2022-11-12T21:11:15.735Z,98585.81
2022-11-12T21:13:42.958Z,98582.22
2022-11-12T21:16:11.283Z,98563.47
2022-11-12T21:18:38.816Z,98564.28
2022-11-12T21:21:11.055Z,98564.66
2022-11-12T21:23:39.871Z,98567.47
2022-11-12T21:26:18.423Z,98564.69
2022-11-12T21:28:48.317Z,98573.06
2022-11-12T21:31:17.643Z,98585.00
2022-11-12T21:33:44.237Z,98584.22
2022-11-12T21:36:16.067Z,98581.03
2022-11-12T21:38:43.665Z,98576.28
2022-11-12T21:41:13.581Z,98577.84
2022-11-12T21:43:43.172Z,98571.88
2022-11-12T21:46:12.666Z,98577.06
2022-11-12T21:48:39.178Z,98570.69
2022-11-12T21:51:12.232Z,98558.72
2022-11-12T21:53:39.611Z,98563.94
2022-11-12T21:56:07.620Z,98565.13
2022-11-12T21:58:34.240Z,98565.50
2022-11-12T22:01:17.214Z,98571.50
2022-11-12T22:03:44.895Z,98573.09
2022-11-12T22:06:11.989Z,98568.72
2022-11-12T22:08:39.498Z,98578.28
2022-11-12T22:11:11.268Z,98579.47
2022-11-12T22:13:38.582Z,98582.66
2022-11-12T22:16:19.342Z,98589.44
2022-11-12T22:18:47.892Z,98581.84
2022-11-12T22:21:17.916Z,98590.63
2022-11-12T22:23:44.993Z,98596.22
2022-11-12T22:26:14.687Z,98595.44
2022-11-12T22:28:41.400Z,98597.81
2022-11-12T22:31:09.663Z,98589.03
2022-11-12T22:33:36.351Z,98591.41
2022-11-12T22:36:05.955Z,98591.41
2022-11-12T22:38:40.589Z,98593.03
2022-11-12T22:41:09.870Z,98586.66
2022-11-12T22:43:37.917Z,98573.91
2022-11-12T22:46:13.062Z,98577.88
2022-11-12T22:48:39.664Z,98585.06
2022-11-12T22:51:09.831Z,98581.47
2022-11-12T22:53:36.377Z,98583.47
2022-11-12T22:56:10.501Z,98579.50
2022-11-12T22:58:45.266Z,98574.28
2022-11-12T23:01:22.723Z,98575.09
2022-11-12T23:03:49.590Z,98567.13
2022-11-12T23:06:17.128Z,98564.34
2022-11-12T23:08:44.114Z,98565.94
2022-11-12T23:11:13.848Z,98567.94
2022-11-12T23:13:40.765Z,98567.94
2022-11-12T23:16:12.942Z,98565.91
2022-11-12T23:18:39.682Z,98567.09
2022-11-12T23:21:07.870Z,98566.28
2022-11-12T23:23:35.307Z,98573.84
2022-11-12T23:26:05.933Z,98561.47
2022-11-12T23:28:34.341Z,98573.00
2022-11-12T23:31:02.589Z,98560.63
2022-11-12T23:33:29.239Z,98567.25
2022-11-12T23:36:04.193Z,98567.28
2022-11-12T23:38:31.959Z,98563.69
2022-11-12T23:40:58.525Z,98567.28
2022-11-12T23:43:25.085Z,98571.66
2022-11-12T23:45:52.001Z,98574.03
2022-11-12T23:48:19.835Z,98578.44
2022-11-12T23:50:48.047Z,98575.25
2022-11-12T23:53:14.640Z,98573.66
2022-11-12T23:55:41.817Z,98570.50
2022-11-12T23:58:08.789Z,98568.50
